Eurus Lima — A8MH9 — position and weather

sailwx.info

Track history (hours):
 
Tides and Currents Weather Stations Pressure Air Temp Water Temp Dewpoint Dewpoint Depression Visibility Wind Speed Wind Dir Waves Ship Positions

Eurus Lima (Liberia)

Last reported at 2014-Sep-04 08:05 UTC. Time now 2014-Sep-16 21:29 UTC.
Position N 25°30' W 080°00'.
Warning: this ship's position is 12 days out of date.

Type: Ship. MMSI: 636013342.

Date/timePositionNaut miles runAvg speedWind from/ knotsBaromVisibWave heightAir tempDewpointWater temp
2014-Sep-04 08:05N 25°30' W 080°00'815.5
2014-Sep-04 07:33N 25°38' W 080°00'1514.8
2014-Sep-04 06:33N 25°53' W 080°02'1313.4
2014-Sep-04 05:34N 26°06' W 080°05'2 1.6
2014-Sep-04 04:33N 26°05' W 080°07'0 0.0
2014-Sep-04 03:27N 26°05' W 080°07'0 0.0
2014-Sep-04 02:32N 26°05' W 080°07'0 0.0
2014-Sep-04 01:26N 26°05' W 080°07'0 0.0
2014-Sep-04 00:19N 26°05' W 080°07'0 0.0
2014-Sep-03 23:31N 26°05' W 080°07'0 0.0
2014-Sep-03 22:33N 26°05' W 080°07'0 0.0
2014-Sep-03 21:33N 26°05' W 080°07'0 0.0
2014-Sep-03 20:23N 26°05' W 080°07'0 0.0
2014-Sep-03 19:32N 26°05' W 080°07'0 0.0
2014-Sep-03 18:26N 26°05' W 080°07'0 0.0
2014-Sep-03 17:31N 26°05' W 080°07'0 0.0
2014-Sep-03 16:28N 26°05' W 080°07'0 0.0
2014-Sep-03 15:33N 26°05' W 080°07'0 0.0
2014-Sep-03 14:33N 26°05' W 080°07'0 0.0
2014-Sep-03 13:23N 26°05' W 080°07'0 0.0
2014-Sep-03 12:32N 26°05' W 080°07'0 0.0
2014-Sep-03 11:26N 26°05' W 080°07'0 0.0
2014-Sep-03 10:31N 26°05' W 080°07'0 0.0
2014-Sep-03 09:28N 26°05' W 080°07'1 1.0
2014-Sep-03 08:33N 26°06' W 080°06'4 4.0
2014-Sep-03 07:33N 26°04' W 080°02'1212.2
2014-Sep-03 06:33N 25°56' W 079°52'5 5.2
2014-Sep-03 05:33N 25°51' W 079°50'3 3.4
2014-Sep-03 04:33N 25°47' W 079°50'4 3.5
2014-Sep-03 03:24N 25°43' W 079°50'3 3.5
2014-Sep-03 02:32N 25°40' W 079°50'8 3.3
2014-Sep-03 00:17N 25°33' W 079°49'3 3.2
2014-Sep-02 23:26N 25°30' W 079°49'  
Track history (hours):
 
Tides and Currents Weather Stations Pressure Air Temp Water Temp Dewpoint Dewpoint Depression Visibility Wind Speed Wind Dir Waves Ship Positions

Eurus Lima (Liberia)

Last reported at 2014-Sep-04 08:05 UTC. Time now 2014-Sep-16 21:29 UTC.
Position N 25°30' W 080°00'.
Warning: this ship's position is 12 days out of date.

Type: Ship. MMSI: 636013342.

Date/timePositionNaut miles runAvg speedWind from/ knotsBaromVisibWave heightAir tempDewpointWater temp
2014-Sep-04 08:05N 25°30' W 080°00'815.5
2014-Sep-04 07:33N 25°38' W 080°00'1514.8
2014-Sep-04 06:33N 25°53' W 080°02'1313.4
2014-Sep-04 05:34N 26°06' W 080°05'2 1.6
2014-Sep-04 04:33N 26°05' W 080°07'0 0.0
2014-Sep-04 03:27N 26°05' W 080°07'0 0.0
2014-Sep-04 02:32N 26°05' W 080°07'0 0.0
2014-Sep-04 01:26N 26°05' W 080°07'0 0.0
2014-Sep-04 00:19N 26°05' W 080°07'0 0.0
2014-Sep-03 23:31N 26°05' W 080°07'0 0.0
2014-Sep-03 22:33N 26°05' W 080°07'0 0.0
2014-Sep-03 21:33N 26°05' W 080°07'0 0.0
2014-Sep-03 20:23N 26°05' W 080°07'0 0.0
2014-Sep-03 19:32N 26°05' W 080°07'0 0.0
2014-Sep-03 18:26N 26°05' W 080°07'0 0.0
2014-Sep-03 17:31N 26°05' W 080°07'0 0.0
2014-Sep-03 16:28N 26°05' W 080°07'0 0.0
2014-Sep-03 15:33N 26°05' W 080°07'0 0.0
2014-Sep-03 14:33N 26°05' W 080°07'0 0.0
2014-Sep-03 13:23N 26°05' W 080°07'0 0.0
2014-Sep-03 12:32N 26°05' W 080°07'0 0.0
2014-Sep-03 11:26N 26°05' W 080°07'0 0.0
2014-Sep-03 10:31N 26°05' W 080°07'0 0.0
2014-Sep-03 09:28N 26°05' W 080°07'1 1.0
2014-Sep-03 08:33N 26°06' W 080°06'4 4.0
2014-Sep-03 07:33N 26°04' W 080°02'1212.2
2014-Sep-03 06:33N 25°56' W 079°52'5 5.2
2014-Sep-03 05:33N 25°51' W 079°50'3 3.4
2014-Sep-03 04:33N 25°47' W 079°50'4 3.5
2014-Sep-03 03:24N 25°43' W 079°50'3 3.5
2014-Sep-03 02:32N 25°40' W 079°50'8 3.3
2014-Sep-03 00:17N 25°33' W 079°49'3 3.2
2014-Sep-02 23:26N 25°30' W 079°49'  

Dump ship's entire track history